Time;durP1;ratioP1;P1;durP2;ratioP2;P2;SDS_P1;SDS_P2;PMS_P1;PMS_P2;Temp;Humidity;BMP_temperature;BMP_pressure;BME280_temperature;BME280_humidity;BME280_pressure;Samples;Min_cycle;Max_cycle;Signal;HPM_P1;HPM_P2
2023/11/14 00:00:06;;;;;;;7.43;4.07;;;;;;;;;;341068;29;1486;-70
2023/11/14 00:00:18;;;;;;;6.60;3.78;;;;;;;;;;339810;29;1341;-70
2023/11/14 00:00:29;;;;;;;6.72;3.85;;;;;;;;;;339605;29;1350;-70
2023/11/14 00:00:41;;;;;;;7.80;4.20;;;;;;;;;;340076;29;1319;-70
2023/11/14 00:00:52;;;;;;;9.23;4.60;;;;;;;;;;341239;29;1245;-70
2023/11/14 00:01:03;;;;;;;9.23;4.57;;;;;;;;;;340505;29;1331;-70
2023/11/14 00:01:15;;;;;;;7.97;4.45;;;;;;;;;;340925;29;1288;-70
2023/11/14 00:01:26;;;;;;;7.35;4.40;;;;;;;;;;339781;29;1436;-70
2023/11/14 00:01:37;;;;;;;7.05;4.40;;;;;;;;;;342101;28;1383;-70
2023/11/14 00:01:48;;;;;;;7.53;4.60;;;;;;;;;;341060;28;1341;-70
2023/11/14 00:02:00;;;;;;;8.50;4.78;;;;;;;;;;343644;28;1393;-69
2023/11/14 00:02:11;;;;;;;9.10;4.70;;;;;;;;;;341132;29;1389;-69
2023/11/14 00:02:25;;;;;;;9.90;4.40;;;;;;;;;;339831;29;1556;-69
2023/11/14 00:02:36;;;;;;;10.98;4.50;;;;;;;;;;341078;28;1358;-69
2023/11/14 00:02:47;;;;;;;9.95;4.55;;;;;;;;;;339851;29;1828;-69
2023/11/14 00:02:58;;;;;;;9.50;4.68;;;;;;;;;;339645;29;1440;-70
2023/11/14 00:03:10;;;;;;;9.73;4.72;;;;;;;;;;339820;29;1370;-70
2023/11/14 00:03:21;;;;;;;9.80;4.72;;;;;;;;;;339868;29;1425;-70
2023/11/14 00:03:32;;;;;;;8.05;4.45;;;;;;;;;;339284;29;1416;-70
2023/11/14 00:03:44;;;;;;;7.38;4.40;;;;;;;;;;337926;29;1386;-70
2023/11/14 00:03:55;;;;;;;7.50;4.38;;;;;;;;;;337906;29;1461;-70
2023/11/14 00:04:06;;;;;;;7.85;4.07;;;;;;;;;;338428;29;1383;-70
2023/11/14 00:04:17;;;;;;;7.78;4.00;;;;;;;;;;338531;29;1414;-70
2023/11/14 00:04:28;;;;;;;9.18;4.40;;;;;;;;;;338434;29;1644;-70
2023/11/14 00:04:39;;;;;;;9.13;4.55;;;;;;;;;;339730;29;1382;-70
2023/11/14 00:04:51;;;;;;;9.57;4.53;;;;;;;;;;339809;29;1318;-70
2023/11/14 00:05:02;;;;;;;8.27;4.60;;;;;;;;;;339725;29;1436;-70
2023/11/14 00:05:13;;;;;;;7.80;4.57;;;;;;;;;;339827;29;1418;-71
2023/11/14 00:05:25;;;;;;;7.25;4.30;;;;;;;;;;339845;29;1283;-70
2023/11/14 00:05:36;;;;;;;7.75;4.10;;;;;;;;;;342386;28;1695;-70
2023/11/14 00:05:47;;;;;;;8.40;4.33;;;;;;;;;;342459;28;1488;-70
2023/11/14 00:05:59;;;;;;;9.07;4.65;;;;;;;;;;343587;28;1310;-70
2023/11/14 00:06:10;;;;;;;9.27;4.93;;;;;;;;;;342385;28;1275;-70
2023/11/14 00:06:21;;;;;;;8.90;4.85;;;;;;;;;;338594;29;1331;-70
2023/11/14 00:06:32;;;;;;;8.50;4.60;;;;;;;;;;341020;29;1280;-70
2023/11/14 00:06:43;;;;;;;7.35;4.28;;;;;;;;;;339776;29;1712;-70
2023/11/14 00:06:55;;;;;;;7.53;4.07;;;;;;;;;;339918;29;1405;-70
2023/11/14 00:07:06;;;;;;;7.70;4.20;;;;;;;;;;338994;29;1346;-70
2023/11/14 00:07:17;;;;;;;8.15;4.10;;;;;;;;;;339460;29;1481;-70
2023/11/14 00:07:28;;;;;;;8.35;4.15;;;;;;;;;;338335;29;1454;-70
2023/11/14 00:07:39;;;;;;;8.85;4.30;;;;;;;;;;339871;29;1531;-70
2023/11/14 00:07:50;;;;;;;8.65;4.30;;;;;;;;;;338588;29;1535;-70
2023/11/14 00:08:02;;;;;;;8.43;4.18;;;;;;;;;;339639;29;1382;-70
2023/11/14 00:08:14;;;;;;;9.07;4.10;;;;;;;;;;339782;29;1517;-71
2023/11/14 00:08:25;;;;;;;7.70;4.10;;;;;;;;;;338528;29;1241;-69
2023/11/14 00:08:36;;;;;;;7.37;4.17;;;;;;;;;;338116;29;1413;-70
2023/11/14 00:08:47;;;;;;;7.80;4.25;;;;;;;;;;338533;29;1348;-70
2023/11/14 00:08:58;;;;;;;7.72;4.10;;;;;;;;;;338393;29;1503;-70
2023/11/14 00:09:09;;;;;;;7.38;4.03;;;;;;;;;;338475;29;1490;-70
2023/11/14 00:09:20;;;;;;;8.10;3.83;;;;;;;;;;339881;29;1763;-70
2023/11/14 00:09:32;;;;;;;8.95;3.95;;;;;;;;;;340583;29;1287;-70
2023/11/14 00:09:43;;;;;;;9.43;4.15;;;;;;;;;;341022;29;1346;-71
2023/11/14 00:09:54;;;;;;;8.85;4.45;;;;;;;;;;341168;29;1284;-70
2023/11/14 00:10:06;;;;;;;7.68;4.25;;;;;;;;;;339704;29;1403;-70
2023/11/14 00:10:17;;;;;;;7.80;4.35;;;;;;;;;;339826;29;1347;-70
2023/11/14 00:10:28;;;;;;;9.23;4.53;;;;;;;;;;339598;29;1291;-70
2023/11/14 00:10:39;;;;;;;10.18;4.78;;;;;;;;;;338539;29;1503;-70
2023/11/14 00:10:51;;;;;;;9.80;5.10;;;;;;;;;;339873;29;1614;-70
2023/11/14 00:11:05;;;;;;;9.75;4.85;;;;;;;;;;339631;29;1433;-70
2023/11/14 00:11:16;;;;;;;9.82;4.60;;;;;;;;;;339704;29;1522;-70
2023/11/14 00:11:31;;;;;;;10.45;4.50;;;;;;;;;;339782;29;1483;-70
2023/11/14 00:11:43;;;;;;;8.98;4.43;;;;;;;;;;338487;29;1544;-70
2023/11/14 00:11:54;;;;;;;9.82;4.45;;;;;;;;;;342369;28;1329;-70
2023/11/14 00:12:05;;;;;;;11.73;4.70;;;;;;;;;;342380;28;1499;-70
2023/11/14 00:12:16;;;;;;;11.20;4.53;;;;;;;;;;341065;28;1818;-70
2023/11/14 00:12:27;;;;;;;9.95;4.55;;;;;;;;;;341139;29;1575;-70
2023/11/14 00:12:38;;;;;;;8.60;4.47;;;;;;;;;;340715;29;1321;-69
2023/11/14 00:12:49;;;;;;;9.32;4.68;;;;;;;;;;342468;28;1346;-70
2023/11/14 00:13:00;;;;;;;9.27;4.78;;;;;;;;;;342384;28;1397;-70
2023/11/14 00:13:12;;;;;;;9.32;4.70;;;;;;;;;;342470;28;1318;-70
2023/11/14 00:13:23;;;;;;;9.55;4.47;;;;;;;;;;342447;28;1384;-71
2023/11/14 00:13:34;;;;;;;10.50;4.40;;;;;;;;;;339689;28;1595;-70
2023/11/14 00:13:46;;;;;;;10.13;4.40;;;;;;;;;;339832;29;1489;-70
2023/11/14 00:13:57;;;;;;;9.30;4.65;;;;;;;;;;339839;29;1534;-70
2023/11/14 00:14:08;;;;;;;8.25;4.50;;;;;;;;;;342280;28;1405;-70
2023/11/14 00:14:20;;;;;;;8.77;4.35;;;;;;;;;;342259;28;1375;-70
2023/11/14 00:14:32;;;;;;;8.38;4.15;;;;;;;;;;341945;28;1326;-70
2023/11/14 00:14:44;;;;;;;8.57;4.35;;;;;;;;;;341085;28;1426;-70
2023/11/14 00:14:56;;;;;;;9.10;4.80;;;;;;;;;;339800;29;1264;-70
2023/11/14 00:15:07;;;;;;;8.80;4.53;;;;;;;;;;339700;29;1415;-70
2023/11/14 00:15:18;;;;;;;7.18;4.10;;;;;;;;;;338399;29;1406;-70
2023/11/14 00:15:31;;;;;;;6.88;3.90;;;;;;;;;;338307;29;1915;-70
2023/11/14 00:15:43;;;;;;;9.38;4.22;;;;;;;;;;339779;29;1330;-70
2023/11/14 00:15:54;;;;;;;10.27;4.57;;;;;;;;;;339769;29;1445;-70
2023/11/14 00:16:05;;;;;;;9.60;4.45;;;;;;;;;;339631;29;1561;-70
2023/11/14 00:16:16;;;;;;;10.18;4.28;;;;;;;;;;338463;29;1583;-70
2023/11/14 00:16:27;;;;;;;9.82;4.28;;;;;;;;;;341163;28;1338;-70
2023/11/14 00:16:40;;;;;;;9.05;4.20;;;;;;;;;;340987;29;1354;-70
2023/11/14 00:16:51;;;;;;;7.80;3.75;;;;;;;;;;338586;29;1437;-70
2023/11/14 00:17:03;;;;;;;8.30;3.90;;;;;;;;;;338999;29;1484;-70
2023/11/14 00:17:14;;;;;;;8.85;4.20;;;;;;;;;;339731;29;1331;-71
2023/11/14 00:17:25;;;;;;;10.23;4.57;;;;;;;;;;339587;29;1289;-70
2023/11/14 00:17:36;;;;;;;10.60;4.63;;;;;;;;;;339119;29;1458;-71
2023/11/14 00:17:48;;;;;;;9.88;4.57;;;;;;;;;;341007;28;1433;-71
2023/11/14 00:18:01;;;;;;;9.75;4.38;;;;;;;;;;341056;29;1537;-71
2023/11/14 00:18:12;;;;;;;9.65;4.40;;;;;;;;;;339776;29;2562;-71
2023/11/14 00:18:23;;;;;;;8.90;4.40;;;;;;;;;;339828;29;1446;-71
2023/11/14 00:18:34;;;;;;;9.32;4.43;;;;;;;;;;339671;29;1294;-71
2023/11/14 00:18:45;;;;;;;9.55;4.40;;;;;;;;;;339786;29;1395;-71
2023/11/14 00:18:56;;;;;;;8.48;4.18;;;;;;;;;;338496;29;1272;-71
2023/11/14 00:19:08;;;;;;;8.63;4.18;;;;;;;;;;339572;29;1543;-71
2023/11/14 00:19:19;;;;;;;9.77;4.35;;;;;;;;;;339787;29;1495;-71
2023/11/14 00:19:30;;;;;;;11.48;4.47;;;;;;;;;;339685;29;1394;-71
2023/11/14 00:19:43;;;;;;;10.25;4.55;;;;;;;;;;338419;29;1398;-71
2023/11/14 00:19:54;;;;;;;9.13;4.38;;;;;;;;;;338461;29;1392;-72
2023/11/14 00:20:05;;;;;;;7.93;4.25;;;;;;;;;;339651;29;1358;-69
2023/11/14 00:20:16;;;;;;;7.95;4.05;;;;;;;;;;340411;29;1417;-70
2023/11/14 00:20:27;;;;;;;7.68;3.90;;;;;;;;;;339772;29;1331;-70
2023/11/14 00:20:40;;;;;;;8.18;4.13;;;;;;;;;;340964;28;1279;-71
2023/11/14 00:20:54;;;;;;;8.43;4.35;;;;;;;;;;341065;29;2586;-71
2023/11/14 00:21:06;;;;;;;8.48;4.50;;;;;;;;;;338454;29;1513;-70
2023/11/14 00:21:17;;;;;;;8.35;4.50;;;;;;;;;;338405;29;1527;-71
2023/11/14 00:21:28;;;;;;;8.40;4.40;;;;;;;;;;339866;29;1315;-71
2023/11/14 00:21:39;;;;;;;8.20;4.57;;;;;;;;;;339759;29;1303;-71
2023/11/14 00:21:50;;;;;;;7.38;4.28;;;;;;;;;;341043;29;1666;-71
2023/11/14 00:22:01;;;;;;;7.90;4.35;;;;;;;;;;342396;28;1664;-71
2023/11/14 00:22:12;;;;;;;10.90;4.32;;;;;;;;;;342248;28;1481;-70
2023/11/14 00:22:23;;;;;;;11.75;4.45;;;;;;;;;;340996;29;1384;-71
2023/11/14 00:22:35;;;;;;;10.05;4.22;;;;;;;;;;338291;29;1407;-71
2023/11/14 00:22:47;;;;;;;8.65;4.35;;;;;;;;;;339689;29;1553;-71
2023/11/14 00:22:58;;;;;;;9.25;4.50;;;;;;;;;;339859;29;1298;-71
2023/11/14 00:23:09;;;;;;;8.83;4.43;;;;;;;;;;340938;29;1321;-70
2023/11/14 00:23:20;;;;;;;9.05;4.25;;;;;;;;;;341098;28;1439;-71
2023/11/14 00:23:31;;;;;;;8.60;3.85;;;;;;;;;;342338;28;1377;-71
2023/11/14 00:23:42;;;;;;;7.90;3.78;;;;;;;;;;341077;29;1398;-71
2023/11/14 00:23:54;;;;;;;8.25;4.13;;;;;;;;;;338436;29;1275;-71
2023/11/14 00:24:06;;;;;;;8.98;4.35;;;;;;;;;;341015;29;1493;-70
2023/11/14 00:24:17;;;;;;;9.73;4.38;;;;;;;;;;338436;29;1372;-71
2023/11/14 00:24:29;;;;;;;9.25;4.35;;;;;;;;;;338549;29;1424;-71
2023/11/14 00:24:40;;;;;;;9.07;4.47;;;;;;;;;;339757;29;1173;-71
2023/11/14 00:24:52;;;;;;;7.40;4.30;;;;;;;;;;339719;29;1323;-71
2023/11/14 00:25:03;;;;;;;6.88;4.20;;;;;;;;;;338457;29;1315;-71
2023/11/14 00:25:14;;;;;;;7.50;4.22;;;;;;;;;;338791;29;1509;-71
2023/11/14 00:25:27;;;;;;;7.97;4.30;;;;;;;;;;339847;29;1386;-70
2023/11/14 00:25:38;;;;;;;9.05;4.35;;;;;;;;;;341019;29;1402;-71
2023/11/14 00:25:49;;;;;;;8.65;4.25;;;;;;;;;;341177;29;1287;-71
2023/11/14 00:26:01;;;;;;;9.38;4.30;;;;;;;;;;342344;28;1353;-71
2023/11/14 00:26:12;;;;;;;8.98;4.53;;;;;;;;;;340979;29;1374;-71
2023/11/14 00:26:23;;;;;;;8.57;4.70;;;;;;;;;;339813;29;1449;-71
2023/11/14 00:26:35;;;;;;;7.35;4.35;;;;;;;;;;338281;29;1428;-71
2023/11/14 00:26:46;;;;;;;7.53;4.35;;;;;;;;;;338521;29;1503;-70
2023/11/14 00:26:57;;;;;;;8.13;4.30;;;;;;;;;;339840;29;1635;-71
2023/11/14 00:27:08;;;;;;;9.95;4.30;;;;;;;;;;339629;29;1394;-71
2023/11/14 00:27:19;;;;;;;10.82;4.30;;;;;;;;;;339813;29;1720;-71
2023/11/14 00:27:31;;;;;;;11.40;4.78;;;;;;;;;;339692;29;1240;-71
2023/11/14 00:27:42;;;;;;;10.52;4.93;;;;;;;;;;338484;29;1433;-71
2023/11/14 00:27:53;;;;;;;9.15;4.90;;;;;;;;;;337642;29;1295;-71
2023/11/14 00:28:04;;;;;;;8.40;4.63;;;;;;;;;;338272;29;1624;-71
2023/11/14 00:28:16;;;;;;;8.25;4.50;;;;;;;;;;339785;29;1323;-70
2023/11/14 00:28:27;;;;;;;9.45;4.40;;;;;;;;;;338415;29;1395;-71
2023/11/14 00:28:38;;;;;;;9.10;4.28;;;;;;;;;;339680;29;1418;-71
2023/11/14 00:28:49;;;;;;;9.25;4.28;;;;;;;;;;340689;29;1317;-70
2023/11/14 00:29:00;;;;;;;7.55;4.13;;;;;;;;;;339609;29;1287;-71
2023/11/14 00:29:11;;;;;;;6.53;4.00;;;;;;;;;;340083;29;1582;-71
2023/11/14 00:29:23;;;;;;;6.95;4.22;;;;;;;;;;339823;29;1414;-71
2023/11/14 00:29:35;;;;;;;8.43;4.43;;;;;;;;;;339658;29;1389;-71
2023/11/14 00:29:46;;;;;;;9.15;4.72;;;;;;;;;;339941;29;1435;-70
2023/11/14 00:29:57;;;;;;;9.20;4.72;;;;;;;;;;339005;29;1679;-71
2023/11/14 00:30:09;;;;;;;8.35;4.65;;;;;;;;;;337262;29;1384;-71
2023/11/14 00:30:20;;;;;;;7.90;4.38;;;;;;;;;;337182;29;1372;-71
2023/11/14 00:30:31;;;;;;;8.02;4.20;;;;;;;;;;338551;29;1169;-71
2023/11/14 00:30:43;;;;;;;9.25;4.43;;;;;;;;;;341244;29;1454;-71
2023/11/14 00:30:54;;;;;;;9.02;4.50;;;;;;;;;;339798;29;1517;-71
2023/11/14 00:31:06;;;;;;;7.80;4.30;;;;;;;;;;339936;29;1591;-70
2023/11/14 00:31:17;;;;;;;7.57;4.32;;;;;;;;;;339851;29;1315;-70
2023/11/14 00:31:29;;;;;;;7.88;4.35;;;;;;;;;;339761;29;1312;-71
2023/11/14 00:31:40;;;;;;;8.27;4.25;;;;;;;;;;338267;29;1662;-71
2023/11/14 00:31:51;;;;;;;8.25;4.22;;;;;;;;;;339638;29;1570;-71
2023/11/14 00:32:02;;;;;;;8.65;4.30;;;;;;;;;;339822;29;1414;-71
2023/11/14 00:32:14;;;;;;;8.23;4.43;;;;;;;;;;339884;29;1308;-71
2023/11/14 00:32:25;;;;;;;7.93;4.43;;;;;;;;;;339816;29;1449;-71
2023/11/14 00:32:36;;;;;;;9.38;4.75;;;;;;;;;;339976;29;1268;-71
2023/11/14 00:32:48;;;;;;;9.90;4.63;;;;;;;;;;339823;29;1274;-71
2023/11/14 00:33:00;;;;;;;9.88;4.20;;;;;;;;;;338471;29;1386;-71
2023/11/14 00:33:12;;;;;;;10.00;4.30;;;;;;;;;;339896;29;1417;-71
2023/11/14 00:33:23;;;;;;;8.55;4.15;;;;;;;;;;341083;29;1294;-71
2023/11/14 00:33:34;;;;;;;9.90;4.57;;;;;;;;;;339837;29;1660;-71
2023/11/14 00:33:45;;;;;;;8.80;4.55;;;;;;;;;;341175;29;1256;-72
2023/11/14 00:33:56;;;;;;;9.38;4.55;;;;;;;;;;341550;28;1494;-70
2023/11/14 00:34:07;;;;;;;8.52;4.35;;;;;;;;;;341250;29;1563;-71
2023/11/14 00:34:18;;;;;;;7.68;4.07;;;;;;;;;;339839;28;1770;-71
2023/11/14 00:34:30;;;;;;;6.50;3.78;;;;;;;;;;338553;29;1399;-71
2023/11/14 00:34:41;;;;;;;7.07;4.15;;;;;;;;;;339862;29;1287;-70
2023/11/14 00:34:52;;;;;;;7.75;4.32;;;;;;;;;;341208;29;1284;-70
2023/11/14 00:35:03;;;;;;;8.07;4.35;;;;;;;;;;341155;29;1399;-70
2023/11/14 00:35:14;;;;;;;8.00;4.10;;;;;;;;;;338497;29;1521;-70
2023/11/14 00:35:25;;;;;;;8.65;4.43;;;;;;;;;;341140;29;1916;-70
2023/11/14 00:35:37;;;;;;;8.32;4.38;;;;;;;;;;339925;29;1275;-70
2023/11/14 00:35:48;;;;;;;8.57;4.38;;;;;;;;;;339826;29;1886;-70
2023/11/14 00:35:59;;;;;;;7.38;4.10;;;;;;;;;;339813;29;1589;-70
2023/11/14 00:36:10;;;;;;;7.43;4.15;;;;;;;;;;341193;28;1502;-70
2023/11/14 00:36:21;;;;;;;6.50;4.10;;;;;;;;;;339863;29;1318;-70
2023/11/14 00:36:32;;;;;;;7.72;4.05;;;;;;;;;;339769;29;1341;-70
2023/11/14 00:36:44;;;;;;;8.75;4.22;;;;;;;;;;342565;28;1531;-70
2023/11/14 00:36:56;;;;;;;8.38;4.18;;;;;;;;;;341182;29;1494;-70
2023/11/14 00:37:07;;;;;;;7.95;4.40;;;;;;;;;;339821;29;1478;-70
2023/11/14 00:37:18;;;;;;;8.80;4.50;;;;;;;;;;339845;29;1482;-70
2023/11/14 00:37:29;;;;;;;8.77;4.40;;;;;;;;;;338600;29;1323;-70
2023/11/14 00:37:41;;;;;;;7.60;4.20;;;;;;;;;;338511;29;1267;-70
2023/11/14 00:37:54;;;;;;;7.32;4.00;;;;;;;;;;341446;28;1312;-70
2023/11/14 00:38:05;;;;;;;6.93;4.05;;;;;;;;;;342516;28;1497;-70
2023/11/14 00:38:16;;;;;;;6.78;4.00;;;;;;;;;;342533;28;1282;-70
2023/11/14 00:38:27;;;;;;;6.95;4.10;;;;;;;;;;339857;29;1320;-70
2023/11/14 00:38:38;;;;;;;6.43;3.97;;;;;;;;;;339903;29;1295;-70
2023/11/14 00:38:49;;;;;;;6.70;4.22;;;;;;;;;;342478;28;1386;-70
2023/11/14 00:39:00;;;;;;;7.53;4.55;;;;;;;;;;341118;29;1650;-71
2023/11/14 00:39:11;;;;;;;9.60;4.65;;;;;;;;;;339885;28;1264;-70
2023/11/14 00:39:22;;;;;;;9.70;4.55;;;;;;;;;;342553;28;1525;-71
2023/11/14 00:39:34;;;;;;;8.27;4.30;;;;;;;;;;338532;29;1421;-70
2023/11/14 00:39:45;;;;;;;7.85;4.20;;;;;;;;;;340579;29;1656;-70
2023/11/14 00:39:57;;;;;;;8.90;4.35;;;;;;;;;;339721;29;1429;-70
2023/11/14 00:40:09;;;;;;;9.30;4.40;;;;;;;;;;339882;29;1508;-70
2023/11/14 00:40:22;;;;;;;8.77;4.18;;;;;;;;;;339860;29;1396;-70
2023/11/14 00:40:33;;;;;;;7.38;3.97;;;;;;;;;;342482;28;1433;-70
2023/11/14 00:40:44;;;;;;;8.70;4.30;;;;;;;;;;341142;29;1291;-70
2023/11/14 00:40:56;;;;;;;9.68;4.70;;;;;;;;;;343134;28;1572;-70
2023/11/14 00:41:07;;;;;;;9.43;4.53;;;;;;;;;;343777;28;1764;-70
2023/11/14 00:41:18;;;;;;;8.27;4.50;;;;;;;;;;342210;28;1604;-70
2023/11/14 00:41:29;;;;;;;7.85;4.35;;;;;;;;;;342340;28;1434;-70
2023/11/14 00:41:41;;;;;;;8.25;4.47;;;;;;;;;;338569;29;1568;-70
2023/11/14 00:41:53;;;;;;;9.70;4.35;;;;;;;;;;341416;28;1485;-70
2023/11/14 00:42:04;;;;;;;9.93;4.35;;;;;;;;;;341143;29;1270;-70
2023/11/14 00:42:16;;;;;;;9.27;4.03;;;;;;;;;;342510;28;1636;-70
2023/11/14 00:42:33;;;;;;;7.72;3.85;;;;;;;;;;341234;29;890;-70
2023/11/14 00:42:44;;;;;;;8.32;3.90;;;;;;;;;;342344;28;1727;-70
2023/11/14 00:42:55;;;;;;;8.50;3.88;;;;;;;;;;341095;28;1804;-70
2023/11/14 00:43:06;;;;;;;8.70;3.88;;;;;;;;;;342394;28;1805;-71
2023/11/14 00:43:18;;;;;;;8.82;4.07;;;;;;;;;;342485;28;1419;-70
2023/11/14 00:43:29;;;;;;;10.00;4.43;;;;;;;;;;341023;28;1577;-70
2023/11/14 00:43:40;;;;;;;9.93;4.55;;;;;;;;;;342810;28;1867;-70
2023/11/14 00:43:51;;;;;;;9.25;4.32;;;;;;;;;;340996;29;2698;-71
2023/11/14 00:44:03;;;;;;;7.80;4.07;;;;;;;;;;341181;28;1512;-70
2023/11/14 00:44:14;;;;;;;7.40;3.83;;;;;;;;;;343885;28;1393;-70
2023/11/14 00:44:25;;;;;;;8.27;3.95;;;;;;;;;;342535;28;1391;-70
2023/11/14 00:44:36;;;;;;;8.63;4.20;;;;;;;;;;341097;29;1306;-70
2023/11/14 00:44:47;;;;;;;8.23;4.20;;;;;;;;;;341224;29;1665;-70
2023/11/14 00:44:59;;;;;;;7.75;4.10;;;;;;;;;;341188;29;879;-70
2023/11/14 00:45:11;;;;;;;7.50;4.20;;;;;;;;;;341158;29;1309;-70
2023/11/14 00:45:22;;;;;;;8.73;4.22;;;;;;;;;;341213;29;1537;-70
2023/11/14 00:45:33;;;;;;;8.77;4.28;;;;;;;;;;339700;29;1698;-70
2023/11/14 00:45:45;;;;;;;9.18;4.15;;;;;;;;;;339825;29;1292;-70
2023/11/14 00:45:56;;;;;;;8.23;4.15;;;;;;;;;;339814;29;1430;-70
2023/11/14 00:46:10;;;;;;;7.35;4.05;;;;;;;;;;339901;29;1423;-70
2023/11/14 00:46:21;;;;;;;8.57;4.35;;;;;;;;;;339829;29;1522;-70
2023/11/14 00:46:32;;;;;;;9.15;4.68;;;;;;;;;;339870;29;1497;-70
2023/11/14 00:46:43;;;;;;;9.02;4.43;;;;;;;;;;339803;29;1504;-70
2023/11/14 00:46:55;;;;;;;8.43;4.03;;;;;;;;;;339842;29;1284;-70
2023/11/14 00:47:06;;;;;;;7.75;3.72;;;;;;;;;;341120;29;1402;-70
2023/11/14 00:47:17;;;;;;;7.20;3.80;;;;;;;;;;339930;29;1318;-70
2023/11/14 00:47:28;;;;;;;7.20;4.10;;;;;;;;;;339593;29;1274;-71
2023/11/14 00:47:39;;;;;;;8.90;4.25;;;;;;;;;;339233;29;1792;-70
2023/11/14 00:47:50;;;;;;;8.35;4.30;;;;;;;;;;338609;29;1583;-70
2023/11/14 00:48:01;;;;;;;8.00;4.25;;;;;;;;;;341157;29;1546;-70
2023/11/14 00:48:12;;;;;;;7.75;4.57;;;;;;;;;;342496;28;1338;-70
2023/11/14 00:48:24;;;;;;;8.35;4.60;;;;;;;;;;341174;29;1275;-70
2023/11/14 00:48:35;;;;;;;7.65;4.40;;;;;;;;;;341165;29;1490;-70
2023/11/14 00:48:46;;;;;;;6.95;4.03;;;;;;;;;;338588;29;1289;-70
2023/11/14 00:48:57;;;;;;;6.93;4.07;;;;;;;;;;337204;29;1273;-70
2023/11/14 00:49:08;;;;;;;7.05;4.00;;;;;;;;;;338529;29;1723;-70
2023/11/14 00:49:19;;;;;;;8.02;4.10;;;;;;;;;;338567;29;1268;-70
2023/11/14 00:49:30;;;;;;;8.50;4.43;;;;;;;;;;338567;29;1535;-70
2023/11/14 00:49:42;;;;;;;9.52;4.75;;;;;;;;;;339903;29;1399;-71
2023/11/14 00:49:53;;;;;;;8.40;4.53;;;;;;;;;;340188;29;1316;-70
2023/11/14 00:50:05;;;;;;;8.32;4.03;;;;;;;;;;342417;28;1616;-70
2023/11/14 00:50:16;;;;;;;8.18;3.78;;;;;;;;;;340773;29;1652;-70
2023/11/14 00:50:27;;;;;;;8.27;3.80;;;;;;;;;;343660;28;1515;-70
2023/11/14 00:50:38;;;;;;;8.43;4.10;;;;;;;;;;342542;28;1414;-70
2023/11/14 00:50:49;;;;;;;8.25;4.18;;;;;;;;;;341134;29;1276;-71
2023/11/14 00:51:00;;;;;;;6.78;4.10;;;;;;;;;;342483;28;1466;-70
2023/11/14 00:51:11;;;;;;;7.35;4.25;;;;;;;;;;338558;29;1623;-71
2023/11/14 00:51:22;;;;;;;7.57;4.35;;;;;;;;;;341188;29;1397;-70
2023/11/14 00:51:34;;;;;;;7.63;4.25;;;;;;;;;;342553;28;1325;-70
2023/11/14 00:51:45;;;;;;;6.55;3.90;;;;;;;;;;342423;28;1272;-70
2023/11/14 00:51:57;;;;;;;7.30;3.80;;;;;;;;;;341537;28;1435;-70
2023/11/14 00:52:08;;;;;;;8.52;3.97;;;;;;;;;;339909;29;1278;-70
2023/11/14 00:52:19;;;;;;;8.77;4.25;;;;;;;;;;341162;29;1291;-70
2023/11/14 00:52:31;;;;;;;9.23;4.40;;;;;;;;;;341128;29;1367;-70
2023/11/14 00:52:42;;;;;;;9.73;4.20;;;;;;;;;;339879;29;1433;-70
2023/11/14 00:52:53;;;;;;;9.02;3.92;;;;;;;;;;339886;29;1287;-70
2023/11/14 00:53:04;;;;;;;7.75;3.83;;;;;;;;;;339872;29;1495;-70
2023/11/14 00:53:15;;;;;;;8.13;3.97;;;;;;;;;;339753;29;1506;-70
2023/11/14 00:53:26;;;;;;;7.97;4.30;;;;;;;;;;339875;29;1280;-70
2023/11/14 00:53:37;;;;;;;7.80;4.30;;;;;;;;;;340938;29;1728;-71
2023/11/14 00:53:51;;;;;;;7.45;4.10;;;;;;;;;;339831;29;1295;-70
2023/11/14 00:54:02;;;;;;;7.88;4.10;;;;;;;;;;341075;28;1539;-70
2023/11/14 00:54:13;;;;;;;7.70;4.18;;;;;;;;;;341214;29;1481;-70
2023/11/14 00:54:24;;;;;;;7.70;3.95;;;;;;;;;;339888;29;1320;-70
2023/11/14 00:54:36;;;;;;;7.28;3.72;;;;;;;;;;341121;29;1442;-70
2023/11/14 00:54:47;;;;;;;7.18;4.03;;;;;;;;;;341192;29;1407;-70
2023/11/14 00:54:59;;;;;;;7.82;4.32;;;;;;;;;;341101;29;1313;-70
2023/11/14 00:55:10;;;;;;;7.53;4.30;;;;;;;;;;341167;29;1284;-70
2023/11/14 00:55:21;;;;;;;7.85;4.30;;;;;;;;;;339863;29;1299;-70
2023/11/14 00:55:34;;;;;;;7.00;4.25;;;;;;;;;;341014;29;1956;-70
2023/11/14 00:55:46;;;;;;;8.18;4.43;;;;;;;;;;341207;29;1628;-70
2023/11/14 00:55:57;;;;;;;8.48;4.47;;;;;;;;;;341055;29;1331;-70
2023/11/14 00:56:11;;;;;;;8.15;4.20;;;;;;;;;;339906;29;1537;-70
2023/11/14 00:56:22;;;;;;;8.07;4.25;;;;;;;;;;339798;29;1191;-70
2023/11/14 00:56:33;;;;;;;7.97;4.60;;;;;;;;;;339857;29;1401;-70
2023/11/14 00:56:44;;;;;;;7.85;4.60;;;;;;;;;;341097;29;1558;-70
2023/11/14 00:56:56;;;;;;;7.07;4.30;;;;;;;;;;341111;29;1319;-71
2023/11/14 00:57:07;;;;;;;7.57;4.03;;;;;;;;;;339886;29;1066;-70
2023/11/14 00:57:19;;;;;;;7.63;4.00;;;;;;;;;;342499;28;1531;-70
2023/11/14 00:57:30;;;;;;;8.07;4.15;;;;;;;;;;340999;29;1625;-70
2023/11/14 00:57:41;;;;;;;7.45;4.18;;;;;;;;;;341217;28;1490;-70
2023/11/14 00:57:52;;;;;;;7.15;4.10;;;;;;;;;;339742;29;1480;-70
2023/11/14 00:58:03;;;;;;;6.85;4.07;;;;;;;;;;339875;29;1694;-70
2023/11/14 00:58:14;;;;;;;6.93;4.20;;;;;;;;;;339832;29;1266;-70
2023/11/14 00:58:25;;;;;;;7.47;4.30;;;;;;;;;;338478;29;1514;-70
2023/11/14 00:58:37;;;;;;;8.63;4.38;;;;;;;;;;338576;29;1292;-70
2023/11/14 00:58:48;;;;;;;8.63;4.35;;;;;;;;;;339823;29;1291;-70
2023/11/14 00:58:59;;;;;;;9.00;4.38;;;;;;;;;;339775;29;1293;-70
2023/11/14 00:59:10;;;;;;;8.07;4.10;;;;;;;;;;339884;29;1483;-70
2023/11/14 00:59:22;;;;;;;7.18;3.85;;;;;;;;;;339812;29;1521;-70
2023/11/14 00:59:33;;;;;;;6.95;4.00;;;;;;;;;;339824;29;1118;-70
2023/11/14 00:59:44;;;;;;;7.10;4.15;;;;;;;;;;339930;29;1474;-70
2023/11/14 00:59:55;;;;;;;7.07;4.25;;;;;;;;;;341089;29;1332;-70
2023/11/14 01:00:07;;;;;;;7.00;4.00;;;;;;;;;;341194;28;1266;-70
2023/11/14 01:00:18;;;;;;;7.43;4.03;;;;;;;;;;341102;29;1371;-70
2023/11/14 01:00:29;;;;;;;7.50;3.95;;;;;;;;;;339816;29;1346;-70
2023/11/14 01:00:40;;;;;;;7.13;4.10;;;;;;;;;;339801;29;1280;-70
2023/11/14 01:00:51;;;;;;;6.93;4.07;;;;;;;;;;339841;29;1473;-70
2023/11/14 01:01:03;;;;;;;7.53;4.25;;;;;;;;;;338470;29;1434;-70
2023/11/14 01:01:14;;;;;;;7.45;4.10;;;;;;;;;;338511;29;1569;-70
2023/11/14 01:01:26;;;;;;;7.15;4.10;;;;;;;;;;338559;29;1639;-70
2023/11/14 01:01:37;;;;;;;7.22;4.15;;;;;;;;;;341160;28;1315;-70
2023/11/14 01:01:48;;;;;;;7.63;4.35;;;;;;;;;;341091;29;1351;-70
2023/11/14 01:01:59;;;;;;;8.32;4.20;;;;;;;;;;341016;29;1410;-70
2023/11/14 01:02:10;;;;;;;7.75;3.90;;;;;;;;;;339815;29;1411;-70
2023/11/14 01:02:21;;;;;;;6.80;3.50;;;;;;;;;;338825;29;1320;-70
2023/11/14 01:02:32;;;;;;;7.00;3.72;;;;;;;;;;338685;29;1273;-70
2023/11/14 01:02:45;;;;;;;7.18;3.97;;;;;;;;;;338869;29;1289;-70
2023/11/14 01:03:00;;;;;;;7.68;4.15;;;;;;;;;;338705;29;1433;-70
2023/11/14 01:03:11;;;;;;;7.72;4.10;;;;;;;;;;340044;29;1526;-70
2023/11/14 01:03:24;;;;;;;7.47;3.97;;;;;;;;;;340132;29;1279;-70
2023/11/14 01:03:35;;;;;;;6.47;3.95;;;;;;;;;;339868;29;1621;-71
2023/11/14 01:03:46;;;;;;;5.57;3.95;;;;;;;;;;340083;29;1841;-70
2023/11/14 01:03:57;;;;;;;6.13;4.00;;;;;;;;;;342432;28;1428;-70
2023/11/14 01:04:12;;;;;;;7.35;4.20;;;;;;;;;;341383;29;1433;-70
2023/11/14 01:04:23;;;;;;;8.38;4.10;;;;;;;;;;340054;29;1082;-70
2023/11/14 01:04:38;;;;;;;9.23;4.35;;;;;;;;;;339989;29;1746;-70
2023/11/14 01:04:49;;;;;;;8.23;4.20;;;;;;;;;;341385;28;961;-70
2023/11/14 01:05:00;;;;;;;7.70;4.25;;;;;;;;;;339361;29;1562;-70
2023/11/14 01:05:11;;;;;;;8.98;4.43;;;;;;;;;;340067;29;1390;-70
2023/11/14 01:05:23;;;;;;;8.80;4.28;;;;;;;;;;340133;29;1268;-70
2023/11/14 01:05:34;;;;;;;10.82;4.13;;;;;;;;;;341305;29;1267;-71
2023/11/14 01:05:46;;;;;;;10.45;4.00;;;;;;;;;;342788;28;1451;-70
2023/11/14 01:05:57;;;;;;;6.72;3.72;;;;;;;;;;342708;28;1401;-69
2023/11/14 01:06:08;;;;;;;6.70;3.67;;;;;;;;;;344130;28;1413;-70
2023/11/14 01:06:19;;;;;;;8.07;3.83;;;;;;;;;;342669;28;1255;-70
2023/11/14 01:06:30;;;;;;;10.02;4.22;;;;;;;;;;342659;28;1356;-70
2023/11/14 01:06:41;;;;;;;9.75;4.15;;;;;;;;;;341447;29;1455;-71
2023/11/14 01:06:53;;;;;;;8.93;4.10;;;;;;;;;;342655;28;1665;-70
2023/11/14 01:07:05;;;;;;;8.80;4.10;;;;;;;;;;341356;28;1550;-70
2023/11/14 01:07:17;;;;;;;8.90;4.18;;;;;;;;;;341479;29;1365;-70
2023/11/14 01:07:28;;;;;;;6.88;3.85;;;;;;;;;;341399;29;1305;-70
2023/11/14 01:07:40;;;;;;;7.15;3.80;;;;;;;;;;341433;29;1560;-70
2023/11/14 01:07:52;;;;;;;7.63;3.88;;;;;;;;;;338688;29;1604;-70
2023/11/14 01:08:03;;;;;;;7.28;3.60;;;;;;;;;;340106;29;1415;-71
2023/11/14 01:08:14;;;;;;;7.72;3.65;;;;;;;;;;341420;29;1413;-70
2023/11/14 01:08:25;;;;;;;7.60;3.70;;;;;;;;;;340123;29;1265;-70
2023/11/14 01:08:37;;;;;;;7.55;3.92;;;;;;;;;;341343;29;1325;-71
2023/11/14 01:08:48;;;;;;;7.18;4.10;;;;;;;;;;341405;29;1551;-71
2023/11/14 01:09:00;;;;;;;8.25;4.10;;;;;;;;;;341437;29;1521;-71
2023/11/14 01:09:11;;;;;;;8.55;4.20;;;;;;;;;;341404;28;1287;-70
2023/11/14 01:09:23;;;;;;;7.75;4.13;;;;;;;;;;341325;29;1424;-70
2023/11/14 01:09:35;;;;;;;7.65;4.30;;;;;;;;;;338819;29;1688;-70
2023/11/14 01:09:46;;;;;;;7.18;3.95;;;;;;;;;;338733;29;1545;-71
2023/11/14 01:09:57;;;;;;;7.85;3.80;;;;;;;;;;341006;29;1381;-71
2023/11/14 01:10:10;;;;;;;8.75;3.95;;;;;;;;;;342698;28;1328;-70
2023/11/14 01:10:23;;;;;;;7.97;4.00;;;;;;;;;;340065;29;1510;-70
2023/11/14 01:10:35;;;;;;;7.13;4.05;;;;;;;;;;339966;29;1616;-70